Time;durP1;ratioP1;P1;durP2;ratioP2;P2;SDS_P1;SDS_P2;PMS_P1;PMS_P2;Temp;Humidity;BMP_temperature;BMP_pressure;BME280_temperature;BME280_humidity;BME280_pressure;Samples;Min_cycle;Max_cycle;Signal;HPM_P1;HPM_P2
2022/11/03 00:01:45;;;;;;;72.63;51.55;;;17.90;75.60;;;;;;4947943;28;89870;-50
2022/11/03 00:04:13;;;;;;;73.85;51.70;;;17.90;75.60;;;;;;4944592;28;90073;-53
2022/11/03 00:06:40;;;;;;;73.47;51.88;;;17.90;75.60;;;;;;4941530;28;92452;-55
2022/11/03 00:09:11;;;;;;;73.50;52.08;;;17.90;75.60;;;;;;4943197;28;91806;-54
2022/11/03 00:11:39;;;;;;;73.78;52.38;;;17.90;75.60;;;;;;4949787;28;89907;-53
2022/11/03 00:14:05;;;;;;;74.35;51.45;;;17.90;75.70;;;;;;4952193;28;89278;-55
2022/11/03 00:16:32;;;;;;;73.00;51.60;;;17.80;75.60;;;;;;4947008;28;90732;-53
2022/11/03 00:18:57;;;;;;;74.13;51.83;;;17.90;75.70;;;;;;4940658;28;89905;-56
2022/11/03 00:21:23;;;;;;;74.57;52.10;;;17.80;75.50;;;;;;4950560;28;90793;-54
2022/11/03 00:23:50;;;;;;;74.03;52.03;;;17.80;75.70;;;;;;4957097;28;90094;-54
2022/11/03 00:26:24;;;;;;;74.07;51.22;;;17.80;75.70;;;;;;4947445;28;90133;-54
2022/11/03 00:28:55;;;;;;;74.57;51.45;;;17.80;75.70;;;;;;4938468;28;90907;-53
2022/11/03 00:31:28;;;;;;;74.82;52.13;;;17.80;75.70;;;;;;4946551;28;92761;-54
2022/11/03 00:33:54;;;;;;;74.07;51.72;;;17.80;75.80;;;;;;4953776;28;91124;-53
2022/11/03 00:36:23;;;;;;;73.97;52.38;;;17.80;75.80;;;;;;4947553;28;91421;-53
2022/11/03 00:38:49;;;;;;;74.47;51.72;;;17.80;75.70;;;;;;4944779;28;92045;-52
2022/11/03 00:41:15;;;;;;;74.47;52.05;;;17.80;75.70;;;;;;4947363;28;90010;-54
2022/11/03 00:43:42;;;;;;;74.35;52.00;;;17.80;75.80;;;;;;4948705;28;91805;-51
2022/11/03 00:46:08;;;;;;;74.30;51.78;;;17.80;75.70;;;;;;4948289;28;91627;-52
2022/11/03 00:48:35;;;;;;;73.50;51.42;;;17.80;75.80;;;;;;4939734;28;90920;-50
2022/11/03 00:51:00;;;;;;;73.70;51.75;;;17.80;75.70;;;;;;4938715;28;90035;-54
2022/11/03 00:53:27;;;;;;;74.60;51.60;;;17.80;75.90;;;;;;4952107;28;90085;-54
2022/11/03 00:55:53;;;;;;;74.53;51.83;;;17.70;75.70;;;;;;4937624;28;92906;-54
2022/11/03 00:58:19;;;;;;;73.35;51.75;;;17.80;75.90;;;;;;4942929;28;90744;-55
2022/11/03 01:00:44;;;;;;;73.97;51.85;;;17.70;75.70;;;;;;4944286;28;90164;-56
2022/11/03 01:03:10;;;;;;;74.90;51.65;;;17.80;75.80;;;;;;4949577;28;91290;-53
2022/11/03 01:08:35;;;;;;;73.70;51.92;;;17.70;75.70;;;;;;4951012;28;90087;-55
2022/11/03 01:14:06;;;;;;;72.60;51.47;;;17.70;75.70;;;;;;4944448;28;90126;-54
2022/11/03 01:16:32;;;;;;;73.50;51.83;;;17.70;75.70;;;;;;4948589;28;90478;-54
2022/11/03 01:18:58;;;;;;;75.20;51.20;;;17.70;75.80;;;;;;4956904;28;90367;-54
2022/11/03 01:21:24;;;;;;;73.03;51.22;;;17.70;75.80;;;;;;4957630;28;90076;-54
2022/11/03 01:23:49;;;;;;;73.30;51.60;;;17.70;75.90;;;;;;4947612;28;90230;-52
2022/11/03 01:26:16;;;;;;;73.45;51.92;;;17.70;75.80;;;;;;4948410;28;90174;-51
2022/11/03 01:28:44;;;;;;;72.30;51.15;;;17.70;75.90;;;;;;4957953;28;89872;-54
2022/11/03 01:31:16;;;;;;;73.43;51.60;;;17.70;75.90;;;;;;4945891;28;93194;-54
2022/11/03 01:33:44;;;;;;;72.70;51.45;;;17.70;75.80;;;;;;4945427;28;90488;-53
2022/11/03 01:36:11;;;;;;;73.70;51.63;;;17.70;75.80;;;;;;4948024;28;93028;-55
2022/11/03 01:38:37;;;;;;;73.10;52.00;;;17.70;75.70;;;;;;4950909;28;90289;-56
2022/11/03 01:41:06;;;;;;;72.90;51.55;;;17.60;75.70;;;;;;4955118;28;89778;-55
2022/11/03 01:43:32;;;;;;;73.95;52.00;;;17.70;75.80;;;;;;4951325;28;90504;-54
2022/11/03 01:45:57;;;;;;;74.32;51.58;;;17.70;75.80;;;;;;4948783;28;95398;-54
2022/11/03 01:48:23;;;;;;;74.95;51.50;;;17.60;75.80;;;;;;4950784;28;94605;-51
2022/11/03 01:50:50;;;;;;;74.63;51.25;;;17.70;75.70;;;;;;4953917;28;89963;-54
2022/11/03 01:53:18;;;;;;;75.35;51.78;;;17.60;75.70;;;;;;4951067;28;88920;-54
2022/11/03 01:55:46;;;;;;;75.13;51.35;;;17.60;75.60;;;;;;4953469;28;90237;-55
2022/11/03 01:58:25;;;;;;;73.47;51.85;;;17.60;75.70;;;;;;4951289;28;91051;-53
2022/11/03 02:00:54;;;;;;;72.82;51.78;;;17.60;75.70;;;;;;4946694;28;91200;-53
2022/11/03 02:03:21;;;;;;;73.10;51.28;;;17.60;75.80;;;;;;4951404;28;93188;-55
2022/11/03 02:05:50;;;;;;;73.28;51.78;;;17.60;75.70;;;;;;4947195;28;90116;-54
2022/11/03 02:09:07;;;;;;;73.20;51.15;;;17.60;75.80;;;;;;4942889;28;91325;-50
2022/11/03 02:14:19;;;;;;;73.50;51.67;;;17.60;75.80;;;;;;4916251;28;90007;-55
2022/11/03 02:17:00;;;;;;;73.82;51.42;;;17.60;75.90;;;;;;4943048;28;89946;-57
2022/11/03 02:19:41;;;;;;;73.68;51.67;;;17.60;75.90;;;;;;4950556;28;89943;-54
2022/11/03 02:22:28;;;;;;;75.93;51.80;;;17.60;75.90;;;;;;4952787;28;92032;-52
2022/11/03 02:25:15;;;;;;;72.70;51.25;;;17.50;75.90;;;;;;4953563;28;91129;-52
2022/11/03 02:27:41;;;;;;;72.25;51.63;;;17.60;75.90;;;;;;4951524;28;96027;-51
2022/11/03 02:30:08;;;;;;;73.30;51.58;;;17.60;75.80;;;;;;4944830;28;92082;-52
2022/11/03 02:32:54;;;;;;;72.20;51.40;;;17.60;75.80;;;;;;4944444;28;90377;-50
2022/11/03 02:35:42;;;;;;;72.90;51.75;;;17.50;75.80;;;;;;4956535;28;89802;-53
2022/11/03 02:38:12;;;;;;;73.80;51.88;;;17.60;75.90;;;;;;4955552;28;92379;-54
2022/11/03 02:40:44;;;;;;;73.30;51.85;;;17.50;75.80;;;;;;4947644;28;93236;-53
2022/11/03 02:43:13;;;;;;;73.18;51.53;;;17.50;75.90;;;;;;4948219;28;94697;-52
2022/11/03 02:45:39;;;;;;;73.07;51.53;;;17.50;75.80;;;;;;4953039;28;89449;-52
2022/11/03 02:48:05;;;;;;;72.43;51.60;;;17.50;75.90;;;;;;4948909;28;92113;-54
2022/11/03 02:50:33;;;;;;;74.97;51.30;;;17.50;76.00;;;;;;4953389;28;90984;-47
2022/11/03 02:52:59;;;;;;;72.95;51.15;;;17.50;75.80;;;;;;4958525;28;91174;-54
2022/11/03 02:55:27;;;;;;;73.63;51.58;;;17.50;75.90;;;;;;4946447;28;90064;-52
2022/11/03 02:58:02;;;;;;;73.18;51.70;;;17.50;75.80;;;;;;4956955;28;90343;-50
2022/11/03 03:00:30;;;;;;;73.10;51.42;;;17.50;75.80;;;;;;4950826;28;90511;-54
2022/11/03 03:03:04;;;;;;;72.40;51.47;;;17.50;75.90;;;;;;4952679;28;90359;-52
2022/11/03 03:05:34;;;;;;;73.15;50.88;;;17.50;75.80;;;;;;4951994;28;90639;-51
2022/11/03 03:08:06;;;;;;;73.03;51.22;;;17.50;75.90;;;;;;4944350;28;93074;-53
2022/11/03 03:10:42;;;;;;;72.22;51.25;;;17.50;75.90;;;;;;4951051;28;89844;-52
2022/11/03 03:13:11;;;;;;;72.82;51.63;;;17.50;75.90;;;;;;4950147;28;91302;-54
2022/11/03 03:16:22;;;;;;;73.63;51.50;;;17.50;75.80;;;;;;4945484;28;92128;-51
2022/11/03 03:19:17;;;;;;;71.90;51.17;;;17.50;75.90;;;;;;4937772;28;94671;-50
2022/11/03 03:21:45;;;;;;;73.47;51.63;;;17.50;75.80;;;;;;4950905;28;91376;-53
2022/11/03 03:24:54;;;;;;;73.47;51.42;;;17.50;75.80;;;;;;4945974;28;90001;-52
2022/11/03 03:27:23;;;;;;;72.28;51.10;;;17.50;76.00;;;;;;4949428;28;90913;-53
2022/11/03 03:29:55;;;;;;;72.55;51.50;;;17.40;75.80;;;;;;4953249;28;89887;-53
2022/11/03 03:32:22;;;;;;;;;;;17.50;76.00;;;;;;4945435;28;89929;-51
2022/11/03 03:34:50;;;;;;;71.60;51.30;;;17.50;76.00;;;;;;4947878;28;92791;-54
2022/11/03 03:37:18;;;;;;;72.00;51.20;;;17.50;76.00;;;;;;4948542;28;90962;-53
2022/11/03 03:39:48;;;;;;;72.68;51.47;;;17.40;75.90;;;;;;4947828;28;95031;-51
2022/11/03 03:42:15;;;;;;;72.80;51.60;;;17.40;75.90;;;;;;4946439;28;91014;-55
2022/11/03 03:44:42;;;;;;;73.57;51.70;;;17.40;75.90;;;;;;4945169;28;90949;-54
2022/11/03 03:47:34;;;;;;;73.35;51.67;;;17.40;75.90;;;;;;4942908;28;90723;-53
2022/11/03 03:50:00;;;;;;;73.28;51.78;;;17.40;75.90;;;;;;4935089;28;91983;-54
2022/11/03 03:52:27;;;;;;;72.60;50.80;;;17.40;75.90;;;;;;4947623;28;90999;-53
2022/11/03 03:54:54;;;;;;;73.57;51.85;;;17.40;75.90;;;;;;4953374;28;89953;-55
2022/11/03 03:57:22;;;;;;;71.50;51.15;;;17.40;75.90;;;;;;4943642;28;90581;-55
2022/11/03 03:59:48;;;;;;;74.05;51.90;;;17.40;76.00;;;;;;4940792;28;91007;-52
2022/11/03 04:02:14;;;;;;;72.90;51.47;;;17.40;75.90;;;;;;4943940;28;90070;-52
2022/11/03 04:04:40;;;;;;;73.00;51.50;;;17.40;75.90;;;;;;4942834;28;91476;-50
2022/11/03 04:09:51;;;;;;;73.18;51.28;;;17.40;76.00;;;;;;4941918;28;90965;-53
2022/11/03 04:23:17;;;;;;;72.07;51.53;;;17.40;75.90;;;;;;4946912;28;90295;-55
2022/11/03 04:25:49;;;;;;;72.05;51.25;;;17.40;76.50;;;;;;4940644;28;90110;-54
2022/11/03 04:28:15;;;;;;;72.80;51.53;;;17.40;76.00;;;;;;4949381;28;94501;-54
2022/11/03 04:30:41;;;;;;;73.53;51.80;;;17.40;76.00;;;;;;4942243;28;90515;-54
2022/11/03 04:33:19;;;;;;;71.70;51.33;;;17.40;75.90;;;;;;4944874;28;91426;-53
2022/11/03 04:35:46;;;;;;;72.70;51.85;;;17.40;76.00;;;;;;4947047;28;90589;-52
2022/11/03 04:38:15;;;;;;;73.20;51.33;;;17.40;76.10;;;;;;4948078;28;92327;-54
2022/11/03 04:40:46;;;;;;;72.78;51.05;;;17.40;76.00;;;;;;4946243;28;90435;-53
2022/11/03 04:43:13;;;;;;;71.78;51.60;;;17.40;76.00;;;;;;4941818;28;90695;-47
2022/11/03 04:45:41;;;;;;;72.70;51.22;;;17.40;75.90;;;;;;4954606;28;89686;-51
2022/11/03 04:48:15;;;;;;;71.38;50.78;;;17.40;76.20;;;;;;4945143;28;90999;-53
2022/11/03 04:50:41;;;;;;;71.55;51.20;;;17.30;75.90;;;;;;4958202;28;90477;-53
2022/11/03 04:53:18;;;;;;;73.82;51.53;;;17.30;75.90;;;;;;4946858;28;90486;-55
2022/11/03 04:55:45;;;;;;;71.93;50.88;;;17.40;75.90;;;;;;4953802;28;91957;-50
2022/11/03 04:58:20;;;;;;;72.03;50.95;;;17.30;75.90;;;;;;4951054;28;91028;-53
2022/11/03 05:00:48;;;;;;;72.43;51.28;;;17.40;76.00;;;;;;4947103;28;91733;-51
2022/11/03 05:03:22;;;;;;;72.53;51.42;;;17.40;75.90;;;;;;4952251;28;91909;-52
2022/11/03 05:05:48;;;;;;;72.50;51.35;;;17.30;75.90;;;;;;4947628;28;90090;-54
2022/11/03 05:08:19;;;;;;;71.80;51.35;;;17.30;75.90;;;;;;4948608;28;95125;-54
2022/11/03 05:10:46;;;;;;;73.03;51.58;;;17.30;75.80;;;;;;4949170;28;91943;-52
2022/11/03 05:13:22;;;;;;;72.70;51.60;;;17.30;76.00;;;;;;4949091;28;89845;-54
2022/11/03 05:15:50;;;;;;;73.53;51.38;;;17.30;75.90;;;;;;4952421;28;90032;-53
2022/11/03 05:18:24;;;;;;;71.75;51.20;;;17.30;75.90;;;;;;4952366;28;89260;-51
2022/11/03 05:20:58;;;;;;;73.03;51.63;;;17.30;75.90;;;;;;4940989;28;92187;-53
2022/11/03 05:23:26;;;;;;;72.05;51.25;;;17.30;75.90;;;;;;4949176;28;90869;-50
2022/11/03 05:25:57;;;;;;;72.30;51.00;;;17.30;75.90;;;;;;4949834;28;90882;-52
2022/11/03 05:28:27;;;;;;;72.47;51.20;;;17.30;75.80;;;;;;4949068;28;89673;-53
2022/11/03 05:30:53;;;;;;;72.32;51.40;;;17.30;75.80;;;;;;4949906;28;94323;-53
2022/11/03 05:33:29;;;;;;;72.00;51.40;;;17.30;75.90;;;;;;4948420;28;93102;-53
2022/11/03 05:35:59;;;;;;;73.93;51.30;;;17.30;75.90;;;;;;4948911;28;91532;-51
2022/11/03 05:38:27;;;;;;;72.13;51.72;;;17.30;75.70;;;;;;4949675;28;89905;-49
2022/11/03 05:40:53;;;;;;;71.97;51.72;;;17.30;75.80;;;;;;4943864;28;91175;-52
2022/11/03 05:43:20;;;;;;;71.97;51.25;;;17.30;75.80;;;;;;4945715;28;91592;-52
2022/11/03 05:45:49;;;;;;;72.13;51.25;;;17.30;75.80;;;;;;4953913;28;90071;-51
2022/11/03 05:48:36;;;;;;;72.05;51.47;;;17.30;75.80;;;;;;4951211;28;89598;-52
2022/11/03 05:51:17;;;;;;;71.90;50.78;;;17.30;75.80;;;;;;4950705;28;91483;-52
2022/11/03 05:53:44;;;;;;;72.57;51.27;;;17.30;75.80;;;;;;4939620;28;89931;-53
2022/11/03 05:56:16;;;;;;;72.38;51.05;;;17.30;75.90;;;;;;4954194;28;89724;-50
2022/11/03 05:58:43;;;;;;;71.47;51.30;;;17.30;75.80;;;;;;4947999;28;91823;-53
2022/11/03 06:01:27;;;;;;;73.00;51.05;;;17.30;75.80;;;;;;4955347;28;91142;-53
2022/11/03 06:03:53;;;;;;;71.88;51.45;;;17.30;75.80;;;;;;4943017;28;90092;-51
2022/11/03 06:06:23;;;;;;;72.55;51.72;;;17.30;75.90;;;;;;4951161;28;92085;-53
2022/11/03 06:08:50;;;;;;;72.20;50.95;;;17.30;75.90;;;;;;4945419;28;89311;-52
2022/11/03 06:11:29;;;;;;;72.15;51.30;;;17.30;75.80;;;;;;4949054;28;90869;-55
2022/11/03 06:13:57;;;;;;;72.28;51.25;;;17.30;75.80;;;;;;4944433;28;90117;-52
2022/11/03 06:17:15;;;;;;;72.45;51.13;;;17.30;75.80;;;;;;4946585;28;91018;-54
2022/11/03 06:19:46;;;;;;;72.72;51.42;;;17.30;75.80;;;;;;4945193;28;91228;-53
2022/11/03 06:22:23;;;;;;;72.72;51.42;;;17.30;75.80;;;;;;4941885;28;91116;-52
2022/11/03 06:24:49;;;;;;;71.82;51.10;;;17.30;75.80;;;;;;4951430;28;90545;-54
2022/11/03 06:27:21;;;;;;;72.90;51.83;;;17.20;75.80;;;;;;4950052;28;89922;-53
2022/11/03 06:30:00;;;;;;;73.10;51.08;;;17.20;75.80;;;;;;4950048;28;90089;-50
2022/11/03 06:32:27;;;;;;;72.53;51.60;;;17.20;75.70;;;;;;4950549;28;91224;-50
2022/11/03 06:34:57;;;;;;;75.35;51.33;;;17.20;75.90;;;;;;4945719;28;89751;-53
2022/11/03 06:37:42;;;;;;;73.40;51.42;;;17.30;75.80;;;;;;4950896;28;89940;-51
2022/11/03 06:40:13;;;;;;;73.25;51.83;;;17.20;75.80;;;;;;4947066;28;89564;-53
2022/11/03 06:42:39;;;;;;;;;;;17.30;75.80;;;;;;4957110;28;92751;-52
2022/11/03 06:45:24;;;;;;;71.55;50.88;;;17.20;75.90;;;;;;4949376;28;93350;-54
2022/11/03 06:47:52;;;;;;;75.07;51.08;;;17.30;75.80;;;;;;4947576;28;91453;-53
2022/11/03 06:50:27;;;;;;;72.03;51.53;;;17.20;75.90;;;;;;4941446;28;90336;-52
2022/11/03 06:52:54;;;;;;;74.32;51.72;;;17.20;75.80;;;;;;4947437;28;91915;-55
2022/11/03 06:55:24;;;;;;;72.18;51.10;;;17.30;75.90;;;;;;4956044;28;89923;-52
2022/11/03 06:58:06;;;;;;;72.63;51.35;;;17.20;75.90;;;;;;4966250;28;90241;-53
2022/11/03 07:00:38;;;;;;;72.05;51.33;;;17.20;75.90;;;;;;4947792;28;90579;-53
2022/11/03 07:03:15;;;;;;;73.78;51.58;;;17.20;75.80;;;;;;4938822;28;90162;-51
2022/11/03 07:05:41;;;;;;;71.85;51.38;;;17.20;75.90;;;;;;4940263;28;91385;-52
2022/11/03 07:08:41;;;;;;;72.57;52.10;;;17.20;75.90;;;;;;4944212;28;91131;-53
2022/11/03 07:11:13;;;;;;;71.65;51.38;;;17.20;75.90;;;;;;4946865;28;91048;-52
2022/11/03 07:13:39;;;;;;;71.55;51.03;;;17.20;75.90;;;;;;4950761;28;90227;-47
2022/11/03 07:16:31;;;;;;;72.35;51.15;;;17.20;76.00;;;;;;4949656;28;92536;-53
2022/11/03 07:19:04;;;;;;;71.85;51.33;;;17.20;75.90;;;;;;4949161;28;89795;-55
2022/11/03 07:21:38;;;;;;;72.65;51.45;;;17.20;75.90;;;;;;4948325;28;90364;-55
2022/11/03 07:24:22;;;;;;;72.88;51.65;;;17.20;75.80;;;;;;4941625;28;91208;-54
2022/11/03 07:26:52;;;;;;;71.97;51.13;;;17.20;75.70;;;;;;4943897;28;90134;-52
2022/11/03 07:29:21;;;;;;;72.27;51.40;;;17.20;75.80;;;;;;4945569;28;89803;-51
2022/11/03 07:31:50;;;;;;;71.78;51.25;;;17.20;75.80;;;;;;4947161;28;90028;-53
2022/11/03 07:34:21;;;;;;;72.65;51.33;;;17.30;75.90;;;;;;4942568;28;91610;-53
2022/11/03 07:36:47;;;;;;;72.65;51.30;;;17.20;75.80;;;;;;4938300;28;91738;-52
2022/11/03 07:39:17;;;;;;;72.55;50.88;;;17.20;76.60;;;;;;4954171;28;89505;-53
2022/11/03 07:41:43;;;;;;;72.35;51.30;;;17.20;75.70;;;;;;4945242;28;90980;-53
2022/11/03 07:44:15;;;;;;;72.15;51.35;;;17.20;75.90;;;;;;4941806;28;90623;-52
2022/11/03 07:46:42;;;;;;;73.55;51.25;;;17.20;76.00;;;;;;4948840;28;91764;-53
2022/11/03 07:49:18;;;;;;;72.40;51.95;;;17.20;75.80;;;;;;4947917;28;92162;-51
2022/11/03 07:51:44;;;;;;;72.35;51.10;;;17.20;75.90;;;;;;4952224;28;89422;-50
2022/11/03 07:54:25;;;;;;;72.30;50.92;;;17.20;75.90;;;;;;4955497;28;90178;-49
2022/11/03 07:56:56;;;;;;;71.13;51.05;;;17.20;75.90;;;;;;4952638;28;90751;-52
2022/11/03 07:59:31;;;;;;;72.28;51.50;;;17.20;75.90;;;;;;4943638;28;90887;-52
2022/11/03 08:01:58;;;;;;;72.88;51.47;;;17.20;75.80;;;;;;4946568;28;92106;-54
2022/11/03 08:04:24;;;;;;;71.57;50.92;;;17.20;75.80;;;;;;4945810;28;90230;-52
2022/11/03 08:06:50;;;;;;;71.97;50.97;;;17.20;75.70;;;;;;4951736;28;90252;-51
2022/11/03 08:09:17;;;;;;;71.93;51.05;;;17.20;75.70;;;;;;4943671;28;89996;-52
2022/11/03 08:11:44;;;;;;;73.88;51.75;;;17.20;75.90;;;;;;4946559;28;90415;-49
2022/11/03 08:14:10;;;;;;;72.25;51.22;;;17.20;75.90;;;;;;4948102;28;94974;-51
2022/11/03 08:16:36;;;;;;;72.38;51.53;;;17.30;75.70;;;;;;4955465;28;89225;-54
2022/11/03 08:19:02;;;;;;;72.18;51.45;;;17.20;75.60;;;;;;4942443;28;90167;-50
2022/11/03 08:21:28;;;;;;;73.72;51.58;;;17.20;75.70;;;;;;4950464;28;91992;-54
2022/11/03 08:23:54;;;;;;;72.07;51.10;;;17.20;76.40;;;;;;4945765;28;90829;-52
2022/11/03 08:26:19;;;;;;;72.63;51.22;;;17.20;75.70;;;;;;4947991;28;91647;-54
2022/11/03 08:28:45;;;;;;;71.75;51.05;;;17.20;75.70;;;;;;4944501;28;91077;-53
2022/11/03 08:31:11;;;;;;;72.63;51.58;;;17.20;75.80;;;;;;4953449;28;91591;-52
2022/11/03 08:33:36;;;;;;;72.63;51.50;;;17.20;75.80;;;;;;4952619;28;90163;-50
2022/11/03 08:36:03;;;;;;;72.05;51.08;;;17.30;75.80;;;;;;4951146;28;90004;-50
2022/11/03 08:38:29;;;;;;;72.53;51.38;;;17.20;75.80;;;;;;4946749;28;89843;-54
2022/11/03 08:40:57;;;;;;;73.10;51.72;;;17.30;75.80;;;;;;4944219;28;92796;-54
2022/11/03 08:43:23;;;;;;;76.15;51.92;;;17.30;75.80;;;;;;4948854;28;89867;-55
2022/11/03 08:45:52;;;;;;;75.15;51.75;;;17.30;75.60;;;;;;4944269;28;90673;-52
2022/11/03 08:48:22;;;;;;;78.53;52.00;;;17.30;75.50;;;;;;4948233;28;92092;-54
2022/11/03 08:50:53;;;;;;;76.65;52.05;;;17.30;75.40;;;;;;4953092;28;90217;-54
2022/11/03 08:53:22;;;;;;;81.27;52.20;;;17.30;75.30;;;;;;4947194;28;90950;-50
2022/11/03 08:55:48;;;;;;;78.85;52.70;;;17.40;75.30;;;;;;4951792;28;91369;-53
2022/11/03 08:58:14;;;;;;;76.63;51.95;;;17.40;75.20;;;;;;4951436;28;89566;-54
2022/11/03 09:00:39;;;;;;;76.03;52.10;;;17.40;75.10;;;;;;4948307;28;90120;-53
2022/11/03 09:03:05;;;;;;;79.22;52.63;;;17.40;75.10;;;;;;4948476;28;91474;-54
2022/11/03 09:05:31;;;;;;;76.47;52.60;;;17.40;75.20;;;;;;4947714;28;90016;-55
2022/11/03 09:07:56;;;;;;;76.32;52.58;;;17.40;75.00;;;;;;4950861;28;91600;-54
2022/11/03 09:10:22;;;;;;;76.93;52.65;;;17.40;75.00;;;;;;4952541;28;90141;-54
2022/11/03 09:12:48;;;;;;;78.93;52.30;;;17.40;75.00;;;;;;4956389;28;91684;-53
2022/11/03 09:15:13;;;;;;;82.18;52.78;;;17.50;75.00;;;;;;4942540;28;90795;-54
2022/11/03 09:17:39;;;;;;;76.82;52.33;;;17.50;74.90;;;;;;4952008;28;90967;-55
2022/11/03 09:20:05;;;;;;;76.63;52.17;;;17.50;74.80;;;;;;4946387;28;90468;-54
2022/11/03 09:22:31;;;;;;;75.90;52.28;;;17.50;74.80;;;;;;4945187;28;90439;-55
2022/11/03 09:24:57;;;;;;;76.22;52.78;;;17.50;74.60;;;;;;4950224;28;89886;-56
2022/11/03 09:27:23;;;;;;;80.13;52.55;;;17.50;74.70;;;;;;4948182;28;92210;-54
2022/11/03 09:29:49;;;;;;;78.30;52.83;;;17.50;74.60;;;;;;4950431;28;89858;-54
2022/11/03 09:32:15;;;;;;;76.25;52.20;;;17.50;74.60;;;;;;4954552;28;91933;-53
2022/11/03 09:34:41;;;;;;;75.68;52.20;;;17.50;74.50;;;;;;4940928;28;91600;-52
2022/11/03 09:37:07;;;;;;;78.03;53.10;;;17.60;74.70;;;;;;4946152;28;91387;-55
2022/11/03 09:39:33;;;;;;;76.10;52.60;;;17.60;74.60;;;;;;4944602;28;90986;-56
2022/11/03 09:41:59;;;;;;;80.10;52.55;;;17.60;74.60;;;;;;4949510;28;91085;-54
2022/11/03 09:44:25;;;;;;;80.68;52.78;;;17.60;74.70;;;;;;4944225;28;90382;-56
2022/11/03 09:46:51;;;;;;;79.07;53.08;;;17.60;74.60;;;;;;4951570;28;90526;-56
2022/11/03 09:49:19;;;;;;;78.38;52.80;;;17.70;74.50;;;;;;4945818;28;90198;-54
2022/11/03 09:51:45;;;;;;;77.07;52.88;;;17.60;74.30;;;;;;4938142;28;90478;-54
2022/11/03 09:54:15;;;;;;;80.90;52.50;;;17.70;74.20;;;;;;4942825;28;90054;-54
2022/11/03 09:56:42;;;;;;;78.85;53.72;;;17.60;73.90;;;;;;4938999;28;92266;-51
2022/11/03 09:59:20;;;;;;;77.57;52.53;;;17.70;74.60;;;;;;4940222;28;91994;-54
2022/11/03 10:01:48;;;;;;;79.32;52.42;;;17.60;73.70;;;;;;4936660;28;93725;-53
2022/11/03 10:04:16;;;;;;;81.38;52.85;;;17.70;73.60;;;;;;4937002;28;90732;-50
2022/11/03 10:06:42;;;;;;;77.03;53.03;;;17.70;73.40;;;;;;4919216;28;92637;-49
2022/11/03 10:09:14;;;;;;;78.20;52.95;;;17.70;74.00;;;;;;4935352;28;90557;-49
2022/11/03 10:11:41;;;;;;;80.22;52.55;;;17.80;74.00;;;;;;4940101;28;93159;-51
2022/11/03 10:14:12;;;;;;;78.03;53.03;;;17.80;74.30;;;;;;4944163;28;90187;-55
2022/11/03 10:16:40;;;;;;;78.10;52.63;;;17.90;73.90;;;;;;4941726;28;90062;-44
2022/11/03 10:19:10;;;;;;;78.10;52.30;;;18.00;74.00;;;;;;4945190;28;90266;-45
2022/11/03 10:21:37;;;;;;;78.00;52.70;;;18.00;74.10;;;;;;4943333;28;93193;-44
2022/11/03 10:24:03;;;;;;;78.82;52.75;;;18.10;74.30;;;;;;4946590;28;90072;-48
2022/11/03 10:26:41;;;;;;;78.95;52.42;;;18.10;74.30;;;;;;4940357;28;93773;-47
2022/11/03 10:29:08;;;;;;;79.90;52.95;;;18.20;74.40;;;;;;4947473;28;89982;-50
2022/11/03 10:31:38;;;;;;;78.93;52.50;;;18.20;74.50;;;;;;4951284;28;92281;-52
2022/11/03 10:34:05;;;;;;;76.50;52.42;;;18.30;74.70;;;;;;4945454;28;90198;-52
2022/11/03 10:36:33;;;;;;;77.13;52.80;;;18.30;74.70;;;;;;4944626;28;89967;-52
2022/11/03 10:39:19;;;;;;;75.15;52.30;;;18.30;74.70;;;;;;4941094;28;91397;-52
2022/11/03 10:41:56;;;;;;;78.43;52.65;;;18.30;74.30;;;;;;4947689;28;90607;-51
2022/11/03 10:44:26;;;;;;;85.78;52.95;;;18.30;73.90;;;;;;4949166;28;90273;-50
2022/11/03 10:46:59;;;;;;;77.38;52.75;;;18.30;73.60;;;;;;4940251;28;91606;-50
2022/11/03 10:49:28;;;;;;;78.43;52.65;;;18.30;73.30;;;;;;4943098;28;96083;-48
2022/11/03 10:52:16;;;;;;;80.82;53.40;;;18.30;72.90;;;;;;4939308;28;92012;-51
2022/11/03 10:54:42;;;;;;;78.32;53.05;;;18.30;72.80;;;;;;4934509;28;91783;-46
2022/11/03 10:57:08;;;;;;;79.28;52.88;;;18.40;72.60;;;;;;4942399;28;91824;-46
2022/11/03 10:59:36;;;;;;;76.72;52.22;;;18.40;72.30;;;;;;4945471;28;90278;-48
2022/11/03 11:02:10;;;;;;;79.50;52.75;;;18.50;72.20;;;;;;4942459;28;90142;-49
2022/11/03 11:04:35;;;;;;;81.38;53.08;;;18.50;72.00;;;;;;4942283;28;90716;-48
2022/11/03 11:07:01;;;;;;;80.32;53.15;;;18.60;71.90;;;;;;4945137;28;96233;-46
2022/11/03 11:09:27;;;;;;;76.78;52.63;;;18.60;71.80;;;;;;4944474;28;92727;-48
2022/11/03 11:12:15;;;;;;;78.32;53.05;;;18.50;71.70;;;;;;4941460;28;90240;-48
2022/11/03 11:15:28;;;;;;;77.03;52.55;;;18.60;72.20;;;;;;4939264;28;90997;-47
2022/11/03 11:17:53;;;;;;;77.70;52.63;;;18.60;72.40;;;;;;4909137;28;91278;-48
2022/11/03 11:20:35;;;;;;;82.68;52.40;;;18.60;72.50;;;;;;4938347;28;90162;-49
2022/11/03 11:23:33;;;;;;;79.97;52.45;;;18.60;72.10;;;;;;4949921;28;90372;-46
2022/11/03 11:26:08;;;;;;;76.60;52.38;;;18.60;71.70;;;;;;4917396;28;90120;-50
2022/11/03 11:29:04;;;;;;;78.00;53.00;;;18.50;71.20;;;;;;4948859;28;92430;-45
2022/11/03 11:31:31;;;;;;;79.50;52.42;;;18.50;71.20;;;;;;4933788;28;91118;-48
2022/11/03 11:34:09;;;;;;;77.78;52.85;;;18.50;70.80;;;;;;4944011;28;91795;-46
2022/11/03 11:36:36;;;;;;;78.30;52.55;;;18.50;70.70;;;;;;4945658;28;89442;-48
2022/11/03 11:39:08;;;;;;;79.18;53.70;;;18.50;70.70;;;;;;4946623;28;90199;-46
2022/11/03 11:42:09;;;;;;;77.75;52.97;;;18.50;70.80;;;;;;4941829;28;91953;-49
2022/11/03 11:44:52;;;;;;;76.70;52.53;;;18.50;70.80;;;;;;4942957;28;95498;-49
2022/11/03 11:47:31;;;;;;;77.78;52.85;;;18.50;70.80;;;;;;4936190;28;90612;-48
2022/11/03 11:50:22;;;;;;;80.68;52.58;;;18.50;70.60;;;;;;4936513;28;91729;-48
2022/11/03 11:52:54;;;;;;;81.88;52.42;;;18.50;70.50;;;;;;4934097;28;91409;-47
2022/11/03 11:55:38;;;;;;;77.95;53.00;;;18.50;70.50;;;;;;4942510;28;92347;-46
2022/11/03 11:58:12;;;;;;;79.32;53.60;;;18.50;70.50;;;;;;4933750;28;90787;-51
2022/11/03 12:00:53;;;;;;;79.68;52.72;;;18.50;70.30;;;;;;4937381;28;95489;-48
2022/11/03 12:03:27;;;;;;;79.18;53.47;;;18.50;70.30;;;;;;4938266;28;89695;-50
2022/11/03 12:05:53;;;;;;;80.45;52.95;;;18.50;70.30;;;;;;4940590;28;91165;-50
2022/11/03 12:08:23;;;;;;;78.35;52.63;;;18.60;70.20;;;;;;4943161;28;90549;-49
2022/11/03 12:10:54;;;;;;;79.93;53.38;;;18.60;70.20;;;;;;4944054;28;92789;-50
2022/11/03 12:13:57;;;;;;;77.55;52.95;;;18.60;70.10;;;;;;4941972;28;92747;-51
2022/11/03 12:16:33;;;;;;;80.22;53.42;;;18.60;70.00;;;;;;4939602;28;90742;-51
2022/11/03 12:19:37;;;;;;;78.38;52.97;;;18.60;70.20;;;;;;4944757;28;90942;-46
2022/11/03 12:22:08;;;;;;;81.55;53.90;;;18.60;70.00;;;;;;4941825;28;90887;-53
2022/11/03 12:24:54;;;;;;;79.22;53.00;;;18.60;69.70;;;;;;4940929;28;101045;-47
2022/11/03 12:27:41;;;;;;;81.43;52.75;;;18.50;69.00;;;;;;4947049;28;90731;-47
2022/11/03 12:30:17;;;;;;;79.55;52.85;;;18.60;69.30;;;;;;4945247;28;91454;-49
2022/11/03 12:32:44;;;;;;;79.82;53.15;;;18.50;68.70;;;;;;4947837;28;90848;-47
2022/11/03 12:35:12;;;;;;;78.63;52.67;;;18.50;68.70;;;;;;4948644;28;90456;-48
2022/11/03 12:37:38;;;;;;;76.53;52.35;;;18.50;68.50;;;;;;4935619;28;97322;-49
2022/11/03 12:40:05;;;;;;;79.30;53.20;;;18.50;68.80;;;;;;4936020;28;91698;-49
2022/11/03 12:42:31;;;;;;;78.57;53.15;;;18.50;68.90;;;;;;4941303;28;90076;-52
2022/11/03 12:44:57;;;;;;;77.97;53.22;;;18.60;69.10;;;;;;4934999;28;90939;-48
2022/11/03 12:47:23;;;;;;;77.45;52.85;;;18.60;68.40;;;;;;4941853;28;95332;-51
2022/11/03 12:49:48;;;;;;;79.20;53.13;;;18.60;68.60;;;;;;4941681;28;91902;-48
2022/11/03 12:52:14;;;;;;;79.47;53.25;;;18.60;68.50;;;;;;4941628;28;89578;-48
2022/11/03 12:54:41;;;;;;;79.40;52.92;;;18.60;68.40;;;;;;4940807;28;90447;-45
2022/11/03 12:57:07;;;;;;;78.00;53.03;;;18.60;68.70;;;;;;4948936;28;90305;-47
2022/11/03 12:59:32;;;;;;;82.43;52.80;;;18.60;68.90;;;;;;4944657;28;95051;-45
2022/11/03 13:01:59;;;;;;;77.63;53.22;;;18.60;68.60;;;;;;4946409;28;92492;-52
2022/11/03 13:04:25;;;;;;;77.68;53.38;;;18.60;68.80;;;;;;4943603;28;91891;-46
2022/11/03 13:06:50;;;;;;;81.00;52.92;;;18.70;68.60;;;;;;4939970;28;90325;-45
2022/11/03 13:09:16;;;;;;;78.85;53.10;;;18.70;69.00;;;;;;4947387;28;92478;-48
2022/11/03 13:14:26;;;;;;;79.45;53.50;;;18.70;67.60;;;;;;4946347;28;90245;-47